RYS3064 LGZA-EPKT
Flight info
| Callsign | RYS3064 |
|---|---|
| Flight time | N/A |
| Altitude | 24000 |
| Route | OSDES Y302 SOTEG/N0439F360 UY302 GARTA/N0442F380 UV60 YNN UL604 DIMIS DCT ALELU DCT MODRA/N0444F370 DCT VAL/N0447F380 DCT PARAK DCT LITKU DCT REDSI/N0448F390 DCT MEBAN |
| Aircraft | B738/M-SDE3FGILRWY/SB1 |
Departure
| Time | N/A |
|---|---|
| Airport | Zakynthos International Airport Dionysios Solomos (LGZA) |
Arrival
| Time | 2026-04-30 19:14 |
|---|---|
| Airport | Katowice Wojciech Korfanty International Airport (EPKT) |
| Time | Latitude | Longitude | Altitude | Speed | Heading |
|---|---|---|---|---|---|
| 2026-04-30 17:39 | 39.94607 | 20.67196 | 36064 ft | 404 kts | 329° |
| 2026-04-30 17:41 | 40.15687 | 20.56893 | 36073 ft | 413 kts | 341° |
| 2026-04-30 17:42 | 40.21299 | 20.55260 | 36072 ft | 413 kts | 341° |
| 2026-04-30 17:43 | 40.35321 | 20.51075 | 36100 ft | 415 kts | 340° |
| 2026-04-30 17:44 | 40.52227 | 20.45984 | 36103 ft | 423 kts | 340° |
| 2026-04-30 17:46 | 40.66928 | 20.41531 | 36110 ft | 441 kts | 340° |
| 2026-04-30 17:47 | 40.78949 | 20.37885 | 36130 ft | 444 kts | 340° |
| 2026-04-30 17:48 | 40.99985 | 20.31465 | 36122 ft | 442 kts | 340° |
| 2026-04-30 17:50 | 41.23839 | 20.24127 | 36134 ft | 437 kts | 340° |
| 2026-04-30 17:52 | 41.41606 | 20.18626 | 36132 ft | 439 kts | 339° |
| 2026-04-30 17:54 | 41.68384 | 20.10279 | 36162 ft | 440 kts | 340° |
| 2026-04-30 17:56 | 41.92170 | 20.02817 | 36186 ft | 439 kts | 340° |
| 2026-04-30 17:58 | 42.10013 | 19.97159 | 36211 ft | 439 kts | 340° |
| 2026-04-30 18:00 | 42.33869 | 19.89560 | 36234 ft | 442 kts | 341° |
| 2026-04-30 18:01 | 42.47866 | 19.85060 | 36277 ft | 442 kts | 340° |
| 2026-04-30 18:02 | 42.65137 | 19.76572 | 36259 ft | 440 kts | 335° |
| 2026-04-30 18:04 | 42.82387 | 19.68004 | 36291 ft | 440 kts | 335° |
| 2026-04-30 18:06 | 43.06071 | 19.59853 | 36298 ft | 459 kts | 2° |
| 2026-04-30 18:08 | 43.28209 | 19.64753 | 36330 ft | 460 kts | 4° |
| 2026-04-30 18:10 | 43.53558 | 19.70241 | 36304 ft | 461 kts | 4° |
| 2026-04-30 18:11 | 43.75733 | 19.75056 | 36306 ft | 460 kts | 5° |
| 2026-04-30 18:13 | 43.91548 | 19.78526 | 36308 ft | 460 kts | 5° |
| 2026-04-30 18:14 | 44.07331 | 19.82003 | 36307 ft | 459 kts | 5° |
| 2026-04-30 18:15 | 44.26243 | 19.86196 | 36300 ft | 459 kts | 6° |
| 2026-04-30 18:16 | 44.38880 | 19.88430 | 36303 ft | 457 kts | 1° |
| 2026-04-30 18:17 | 44.45226 | 19.89086 | 36302 ft | 457 kts | 1° |
| 2026-04-30 18:18 | 44.54694 | 19.90115 | 36298 ft | 457 kts | 2° |
| 2026-04-30 18:18 | 44.61027 | 19.90844 | 36311 ft | 456 kts | 2° |
| 2026-04-30 18:19 | 44.67352 | 19.91583 | 36302 ft | 456 kts | 2° |
| 2026-04-30 18:19 | 44.73718 | 19.92327 | 36304 ft | 456 kts | 2° |
| 2026-04-30 18:20 | 44.79988 | 19.93061 | 36303 ft | 455 kts | 2° |
| 2026-04-30 18:20 | 44.86303 | 19.93801 | 36306 ft | 455 kts | 2° |
| 2026-04-30 18:21 | 44.92610 | 19.94541 | 36297 ft | 455 kts | 2° |
| 2026-04-30 18:21 | 44.98916 | 19.95283 | 36304 ft | 454 kts | 2° |
| 2026-04-30 18:22 | 45.05221 | 19.96027 | 36309 ft | 454 kts | 2° |
| 2026-04-30 18:22 | 45.14671 | 19.97144 | 36309 ft | 454 kts | 2° |
| 2026-04-30 18:23 | 45.20965 | 19.97891 | 36326 ft | 454 kts | 2° |
| 2026-04-30 18:23 | 45.27258 | 19.98639 | 36315 ft | 454 kts | 2° |
| 2026-04-30 18:24 | 45.36692 | 19.99763 | 36316 ft | 453 kts | 2° |
| 2026-04-30 18:25 | 45.42972 | 20.00514 | 36327 ft | 453 kts | 3° |
| 2026-04-30 18:25 | 45.52393 | 20.01643 | 36319 ft | 452 kts | 3° |
| 2026-04-30 18:26 | 45.61801 | 20.02775 | 36330 ft | 452 kts | 3° |
| 2026-04-30 18:27 | 45.71198 | 20.03909 | 36319 ft | 452 kts | 3° |
| 2026-04-30 18:28 | 45.80542 | 20.05040 | 36322 ft | 451 kts | 3° |
| 2026-04-30 18:28 | 45.89921 | 20.06180 | 36324 ft | 451 kts | 4° |
| 2026-04-30 18:29 | 45.93038 | 20.06559 | 36585 ft | 448 kts | 4° |
| 2026-04-30 18:29 | 46.02162 | 20.07674 | 37928 ft | 431 kts | 4° |
| 2026-04-30 18:30 | 46.08126 | 20.08403 | 38324 ft | 431 kts | 4° |
| 2026-04-30 18:30 | 46.14138 | 20.09139 | 38333 ft | 434 kts | 3° |
| 2026-04-30 18:31 | 46.23057 | 20.08007 | 38329 ft | 428 kts | 350° |
| 2026-04-30 18:32 | 46.31847 | 20.05871 | 38327 ft | 426 kts | 350° |
| 2026-04-30 18:33 | 46.40597 | 20.03811 | 38325 ft | 424 kts | 351° |
| 2026-04-30 18:33 | 46.49351 | 20.01770 | 38333 ft | 425 kts | 351° |
| 2026-04-30 18:34 | 46.58098 | 19.99726 | 38335 ft | 427 kts | 351° |
| 2026-04-30 18:35 | 46.63977 | 19.98348 | 38331 ft | 429 kts | 351° |
| 2026-04-30 18:35 | 46.69874 | 19.96963 | 38345 ft | 430 kts | 351° |
| 2026-04-30 18:36 | 46.78756 | 19.94870 | 38343 ft | 432 kts | 351° |
| 2026-04-30 18:37 | 46.87652 | 19.92766 | 38342 ft | 432 kts | 351° |
| 2026-04-30 18:37 | 46.93583 | 19.91360 | 38349 ft | 431 kts | 351° |
| 2026-04-30 18:38 | 46.99503 | 19.89954 | 38344 ft | 431 kts | 351° |
| 2026-04-30 18:38 | 47.05415 | 19.88546 | 38342 ft | 430 kts | 351° |
| 2026-04-30 18:39 | 47.11325 | 19.87136 | 38357 ft | 434 kts | 351° |
| 2026-04-30 18:39 | 47.17334 | 19.85699 | 38348 ft | 441 kts | 351° |
| 2026-04-30 18:40 | 47.23425 | 19.84238 | 38354 ft | 446 kts | 351° |
| 2026-04-30 18:40 | 47.29583 | 19.82758 | 38329 ft | 450 kts | 351° |
| 2026-04-30 18:41 | 47.35764 | 19.81269 | 38339 ft | 451 kts | 352° |
| 2026-04-30 18:41 | 47.41960 | 19.79773 | 38328 ft | 451 kts | 352° |
| 2026-04-30 18:42 | 47.48152 | 19.78274 | 38328 ft | 450 kts | 352° |
| 2026-04-30 18:42 | 47.57417 | 19.76024 | 38326 ft | 449 kts | 352° |
| 2026-04-30 18:45 | 47.91040 | 19.67793 | 38336 ft | 443 kts | 352° |
| 2026-04-30 18:46 | 47.96088 | 19.66547 | 38332 ft | 442 kts | 352° |
| 2026-04-30 18:46 | 48.02165 | 19.65045 | 38342 ft | 442 kts | 352° |
| 2026-04-30 18:47 | 48.08233 | 19.63541 | 38339 ft | 442 kts | 352° |
| 2026-04-30 18:47 | 48.14303 | 19.62033 | 38333 ft | 442 kts | 352° |
| 2026-04-30 18:48 | 48.20371 | 19.60522 | 38322 ft | 441 kts | 353° |
| 2026-04-30 18:48 | 48.23363 | 19.59879 | 38101 ft | 428 kts | 357° |
| 2026-04-30 18:48 | 48.26304 | 19.59811 | 37329 ft | 420 kts | 3° |
| 2026-04-30 18:48 | 48.29228 | 19.59943 | 36393 ft | 420 kts | 4° |
| 2026-04-30 18:49 | 48.32144 | 19.60106 | 35468 ft | 419 kts | 5° |
| 2026-04-30 18:49 | 48.35059 | 19.60267 | 34524 ft | 419 kts | 5° |
| 2026-04-30 18:49 | 48.37969 | 19.60418 | 33410 ft | 419 kts | 5° |
| 2026-04-30 18:49 | 48.40884 | 19.60555 | 32330 ft | 418 kts | 4° |
| 2026-04-30 18:50 | 48.43797 | 19.60684 | 31042 ft | 421 kts | 4° |
| 2026-04-30 18:50 | 48.46739 | 19.60808 | 29507 ft | 425 kts | 4° |
| 2026-04-30 18:50 | 48.49709 | 19.60930 | 27936 ft | 431 kts | 4° |
| 2026-04-30 18:50 | 48.52719 | 19.61052 | 27394 ft | 422 kts | 4° |
| 2026-04-30 18:51 | 48.55579 | 19.61161 | 27554 ft | 408 kts | 4° |
| 2026-04-30 18:51 | 48.58435 | 19.61275 | 27653 ft | 414 kts | 4° |
| 2026-04-30 18:51 | 48.61343 | 19.61395 | 27708 ft | 421 kts | 4° |
| 2026-04-30 18:51 | 48.64292 | 19.61518 | 27743 ft | 427 kts | 4° |
| 2026-04-30 18:52 | 48.67288 | 19.61642 | 27754 ft | 434 kts | 4° |
| 2026-04-30 18:52 | 48.70328 | 19.61767 | 27755 ft | 440 kts | 4° |
| 2026-04-30 18:52 | 48.73397 | 19.61892 | 27766 ft | 442 kts | 4° |
| 2026-04-30 18:52 | 48.76461 | 19.62015 | 27652 ft | 440 kts | 4° |
| 2026-04-30 18:53 | 48.79541 | 19.62140 | 27517 ft | 443 kts | 4° |
| 2026-04-30 18:53 | 48.82621 | 19.62265 | 27549 ft | 444 kts | 4° |
| 2026-04-30 18:53 | 48.85669 | 19.62389 | 27574 ft | 444 kts | 4° |
| 2026-04-30 18:53 | 48.88786 | 19.62521 | 27515 ft | 441 kts | 4° |
| 2026-04-30 18:54 | 48.91790 | 19.62649 | 27618 ft | 436 kts | 4° |
| 2026-04-30 18:54 | 48.94824 | 19.62757 | 27575 ft | 435 kts | 5° |
| 2026-04-30 18:54 | 48.97848 | 19.62880 | 27591 ft | 434 kts | 5° |
| 2026-04-30 18:54 | 49.00867 | 19.63009 | 27582 ft | 434 kts | 5° |
| 2026-04-30 18:55 | 49.03882 | 19.63134 | 27600 ft | 433 kts | 5° |
| 2026-04-30 18:55 | 49.09861 | 19.63380 | 27467 ft | 425 kts | 5° |
| 2026-04-30 18:55 | 49.12800 | 19.63504 | 27389 ft | 421 kts | 5° |
| 2026-04-30 18:56 | 49.18523 | 19.63740 | 25775 ft | 404 kts | 5° |
| 2026-04-30 18:56 | 49.21359 | 19.63862 | 24503 ft | 412 kts | 5° |
| 2026-04-30 18:56 | 49.24242 | 19.63989 | 23419 ft | 416 kts | 5° |
| 2026-04-30 18:57 | 49.29899 | 19.64166 | 22356 ft | 396 kts | 4° |
| 2026-04-30 18:57 | 49.32617 | 19.64245 | 21928 ft | 385 kts | 4° |
| 2026-04-30 18:57 | 49.35294 | 19.64330 | 21513 ft | 388 kts | 4° |
| 2026-04-30 18:58 | 49.40757 | 19.64513 | 20666 ft | 393 kts | 4° |
| 2026-04-30 18:58 | 49.43475 | 19.64601 | 20240 ft | 389 kts | 4° |
| 2026-04-30 18:58 | 49.46178 | 19.64573 | 19807 ft | 389 kts | 358° |
| 2026-04-30 18:59 | 49.51532 | 19.63291 | 18923 ft | 388 kts | 353° |
| 2026-04-30 19:00 | 49.59432 | 19.61155 | 17635 ft | 379 kts | 354° |
| 2026-04-30 19:00 | 49.62017 | 19.60479 | 17225 ft | 376 kts | 354° |
| 2026-04-30 19:00 | 49.67156 | 19.59151 | 16432 ft | 373 kts | 354° |
| 2026-04-30 19:01 | 49.72251 | 19.57840 | 15613 ft | 370 kts | 354° |
| 2026-04-30 19:01 | 49.74785 | 19.57189 | 15209 ft | 369 kts | 354° |
| 2026-04-30 19:02 | 49.79801 | 19.55901 | 14425 ft | 366 kts | 354° |
| 2026-04-30 19:02 | 49.84811 | 19.54610 | 13572 ft | 363 kts | 354° |
| 2026-04-30 19:03 | 49.89788 | 19.53324 | 12763 ft | 355 kts | 354° |
| 2026-04-30 19:03 | 49.94630 | 19.52072 | 11745 ft | 351 kts | 353° |
| 2026-04-30 19:04 | 49.99427 | 19.50829 | 10550 ft | 346 kts | 353° |
| 2026-04-30 19:04 | 50.04084 | 19.49619 | 10376 ft | 345 kts | 353° |
| 2026-04-30 19:05 | 50.08836 | 19.48384 | 10367 ft | 346 kts | 353° |
| 2026-04-30 19:05 | 50.13378 | 19.47191 | 10352 ft | 305 kts | 353° |
| 2026-04-30 19:06 | 50.17236 | 19.46169 | 10332 ft | 260 kts | 353° |
| 2026-04-30 19:06 | 50.19015 | 19.45704 | 9752 ft | 261 kts | 353° |
| 2026-04-30 19:06 | 50.22609 | 19.44764 | 8710 ft | 263 kts | 353° |
| 2026-04-30 19:07 | 50.26184 | 19.43828 | 7688 ft | 260 kts | 352° |
| 2026-04-30 19:07 | 50.27965 | 19.43362 | 7192 ft | 259 kts | 352° |
| 2026-04-30 19:08 | 50.31481 | 19.42443 | 6215 ft | 254 kts | 352° |
| 2026-04-30 19:08 | 50.34953 | 19.41535 | 5372 ft | 253 kts | 351° |
| 2026-04-30 19:08 | 50.36683 | 19.41083 | 5080 ft | 251 kts | 351° |
| 2026-04-30 19:09 | 50.40064 | 19.40191 | 4856 ft | 246 kts | 351° |
| 2026-04-30 19:09 | 50.41760 | 19.39743 | 4745 ft | 248 kts | 351° |
| 2026-04-30 19:09 | 50.43460 | 19.39294 | 4639 ft | 249 kts | 351° |
| 2026-04-30 19:10 | 50.46863 | 19.38050 | 4165 ft | 256 kts | 329° |
| 2026-04-30 19:10 | 50.48079 | 19.33336 | 3784 ft | 244 kts | 259° |
| 2026-04-30 19:11 | 50.47730 | 19.30821 | 3623 ft | 230 kts | 266° |
| 2026-04-30 19:11 | 50.47575 | 19.26148 | 3095 ft | 203 kts | 274° |
| 2026-04-30 19:11 | 50.47578 | 19.24008 | 2817 ft | 188 kts | 274° |
| 2026-04-30 19:12 | 50.47577 | 19.22046 | 2564 ft | 173 kts | 274° |
| 2026-04-30 19:12 | 50.47580 | 19.20232 | 2373 ft | 157 kts | 274° |
| 2026-04-30 19:12 | 50.47584 | 19.18560 | 2137 ft | 151 kts | 275° |
| 2026-04-30 19:13 | 50.47589 | 19.15238 | 1702 ft | 150 kts | 272° |
| 2026-04-30 19:13 | 50.47591 | 19.11971 | 1287 ft | 153 kts | 270° |
| 2026-04-30 19:13 | 50.47595 | 19.10334 | 1058 ft | 147 kts | 270° |
| 2026-04-30 19:14 | 50.47598 | 19.08829 | 999 ft | 114 kts | 270° |
| 2026-04-30 19:14 | 50.47601 | 19.07934 | 996 ft | 54 kts | 270° |
| 2026-04-30 19:14 | 50.47603 | 19.07376 | 1000 ft | 47 kts | 270° |
| 2026-04-30 19:14 | 50.47557 | 19.07042 | 999 ft | 27 kts | 247° |
| 2026-04-30 19:15 | 50.47469 | 19.06800 | 1000 ft | 21 kts | 240° |
| 2026-04-30 19:15 | 50.47400 | 19.06635 | 1000 ft | 12 kts | 217° |
| 2026-04-30 19:15 | 50.47318 | 19.06626 | 997 ft | 12 kts | 182° |
| 2026-04-30 19:16 | 50.47245 | 19.06662 | 1001 ft | 12 kts | 123° |
| 2026-04-30 19:16 | 50.47236 | 19.06786 | 999 ft | 12 kts | 89° |
| 2026-04-30 19:16 | 50.47233 | 19.07068 | 997 ft | 1 kts | 117° |
| 2026-04-30 19:17 | 50.47218 | 19.07078 | 998 ft | 6 kts | 168° |
| 2026-04-30 19:17 | 50.47164 | 19.07078 | 997 ft | 0 kts | 180° |